createdAt,value
2018-09-10T00:02:07.013Z,15.70
2018-09-10T00:04:36.757Z,15.60
2018-09-10T00:07:06.743Z,15.60
2018-09-10T00:09:36.771Z,15.60
2018-09-10T00:12:06.765Z,15.70
2018-09-10T00:14:36.882Z,15.70
2018-09-10T00:17:06.882Z,15.80
2018-09-10T00:19:36.901Z,15.80
2018-09-10T00:22:06.934Z,15.70
2018-09-10T00:24:36.913Z,15.60
2018-09-10T00:27:06.925Z,15.70
2018-09-10T00:29:37.118Z,15.90
2018-09-10T00:32:06.960Z,15.80
2018-09-10T00:34:37.134Z,15.80
2018-09-10T00:37:07.206Z,15.60
2018-09-10T00:39:37.246Z,15.50
2018-09-10T00:42:07.159Z,15.40
2018-09-10T00:44:37.176Z,15.30
2018-09-10T00:47:07.218Z,15.60
2018-09-10T00:49:37.206Z,15.70
2018-09-10T00:52:07.291Z,15.50
2018-09-10T00:54:37.327Z,15.40
2018-09-10T00:57:07.262Z,15.70
2018-09-10T00:59:37.426Z,15.70
2018-09-10T01:02:07.426Z,15.60
2018-09-10T01:04:37.529Z,15.70
2018-09-10T01:07:07.490Z,15.70
2018-09-10T01:09:37.567Z,15.30
2018-09-10T01:12:07.551Z,15.20
2018-09-10T01:14:37.505Z,15.10
2018-09-10T01:17:07.639Z,15.20
2018-09-10T01:19:37.530Z,15.20
2018-09-10T01:22:07.652Z,15.20
2018-09-10T01:24:37.553Z,15.20
2018-09-10T01:27:07.660Z,15.10
2018-09-10T01:29:37.649Z,15.00
2018-09-10T01:32:07.722Z,15.30
2018-09-10T01:34:43.019Z,15.40
2018-09-10T01:37:12.186Z,15.60
2018-09-10T01:39:41.441Z,15.70
2018-09-10T01:42:10.514Z,15.60
2018-09-10T01:44:39.693Z,15.60
2018-09-10T01:47:09.018Z,15.50
2018-09-10T01:49:38.198Z,15.50
2018-09-10T01:52:07.892Z,15.50
2018-09-10T01:54:37.979Z,15.50
2018-09-10T01:57:07.982Z,15.50
2018-09-10T01:59:38.172Z,15.50
2018-09-10T02:02:08.122Z,15.50
2018-09-10T02:04:38.321Z,15.50
2018-09-10T02:07:08.127Z,15.60
2018-09-10T02:09:38.054Z,15.50
2018-09-10T02:12:12.208Z,15.60
2018-09-10T02:14:41.405Z,15.30
2018-09-10T02:17:10.705Z,15.20
2018-09-10T02:19:39.834Z,15.20
2018-09-10T02:22:09.049Z,15.10
2018-09-10T02:24:38.387Z,15.30
2018-09-10T02:27:08.330Z,15.60
2018-09-10T02:29:38.284Z,15.60
2018-09-10T02:32:08.352Z,15.30
2018-09-10T02:34:38.350Z,15.10
2018-09-10T02:37:08.403Z,15.00
2018-09-10T02:39:38.407Z,15.10
2018-09-10T02:42:08.501Z,15.10
2018-09-10T02:44:38.665Z,15.10
2018-09-10T02:47:08.585Z,15.30
2018-09-10T02:49:38.628Z,15.50
2018-09-10T02:52:08.690Z,15.50
2018-09-10T02:54:38.753Z,15.50
2018-09-10T02:57:08.736Z,15.50
2018-09-10T02:59:38.730Z,15.40
2018-09-10T03:02:08.629Z,15.40
2018-09-10T03:04:38.676Z,15.50
2018-09-10T03:07:08.790Z,15.50
2018-09-10T03:09:39.014Z,15.30
2018-09-10T03:12:08.882Z,15.10
2018-09-10T03:14:38.935Z,14.90
2018-09-10T03:17:09.014Z,14.70
2018-09-10T03:19:38.919Z,14.70
2018-09-10T03:22:09.050Z,14.70
2018-09-10T03:24:45.751Z,14.70
2018-09-10T03:27:14.956Z,14.80
2018-09-10T03:29:44.083Z,14.70
2018-09-10T03:32:13.310Z,14.60
2018-09-10T03:34:42.358Z,14.60
2018-09-10T03:37:11.648Z,14.50
2018-09-10T03:39:40.860Z,14.40
2018-09-10T03:42:10.042Z,14.50
2018-09-10T03:44:39.359Z,14.50
2018-09-10T03:47:09.386Z,14.50
2018-09-10T03:49:39.352Z,14.50
2018-09-10T03:52:09.265Z,14.60
2018-09-10T03:54:39.431Z,14.50
2018-09-10T03:57:09.397Z,14.40
2018-09-10T03:59:39.374Z,14.40
2018-09-10T04:02:09.421Z,14.40
2018-09-10T04:04:39.462Z,14.50
2018-09-10T04:07:09.682Z,14.50
2018-09-10T04:09:39.517Z,14.50
2018-09-10T04:12:09.610Z,14.50
2018-09-10T04:14:39.794Z,14.50
2018-09-10T04:17:09.717Z,14.50
2018-09-10T04:19:39.686Z,14.50
2018-09-10T04:22:09.801Z,14.40
2018-09-10T04:24:39.823Z,14.40
2018-09-10T04:27:09.858Z,14.40
2018-09-10T04:29:39.878Z,14.50
2018-09-10T04:32:09.891Z,14.30
2018-09-10T04:34:40.022Z,14.30
2018-09-10T04:37:09.910Z,14.30
2018-09-10T04:39:39.919Z,14.50
2018-09-10T04:42:10.020Z,14.30
2018-09-10T04:44:39.934Z,14.30
2018-09-10T04:47:10.078Z,14.20
2018-09-10T04:49:40.065Z,14.30
2018-09-10T04:52:10.064Z,14.20
2018-09-10T04:54:40.106Z,14.20
2018-09-10T04:57:10.070Z,14.20
2018-09-10T04:59:40.342Z,14.10
2018-09-10T05:02:10.331Z,14.10
2018-09-10T05:04:40.335Z,14.30
2018-09-10T05:07:10.258Z,14.20
2018-09-10T05:09:40.231Z,14.20
2018-09-10T05:12:10.327Z,14.30
2018-09-10T05:14:40.386Z,14.30
2018-09-10T05:17:10.463Z,14.30
2018-09-10T05:19:40.422Z,14.30
2018-09-10T05:22:10.590Z,14.40
2018-09-10T05:24:40.731Z,14.70
2018-09-10T05:27:10.590Z,15.20
2018-09-10T05:29:40.585Z,15.00
2018-09-10T05:32:10.590Z,14.80
2018-09-10T05:34:40.584Z,14.70
2018-09-10T05:37:10.669Z,14.80
2018-09-10T05:39:40.706Z,14.70
2018-09-10T05:42:10.686Z,14.80
2018-09-10T05:44:40.899Z,14.80
2018-09-10T05:47:10.791Z,14.90
2018-09-10T05:49:40.996Z,14.90
2018-09-10T05:52:10.845Z,15.00
2018-09-10T05:54:40.985Z,15.20
2018-09-10T05:57:10.946Z,15.30
2018-09-10T05:59:41.185Z,15.30
2018-09-10T06:02:17.415Z,15.30
2018-09-10T06:04:46.595Z,15.40
2018-09-10T06:07:15.847Z,15.50
2018-09-10T06:09:45.091Z,15.60
2018-09-10T06:12:14.179Z,15.70
2018-09-10T06:14:43.326Z,15.70
2018-09-10T06:17:12.422Z,15.90
2018-09-10T06:19:41.642Z,16.20
2018-09-10T06:22:11.196Z,16.10
2018-09-10T06:24:41.212Z,16.10
2018-09-10T06:27:11.275Z,16.00
2018-09-10T06:29:41.505Z,16.30
2018-09-10T06:32:11.409Z,16.40
2018-09-10T06:34:41.414Z,16.30
2018-09-10T06:37:11.528Z,16.50
2018-09-10T06:39:41.537Z,17.10
2018-09-10T06:42:10.871Z,17.30
2018-09-10T06:44:40.073Z,17.40
2018-09-10T06:47:09.282Z,17.70
2018-09-10T06:49:38.448Z,17.90
2018-09-10T06:52:07.614Z,18.00
2018-09-10T06:54:36.753Z,17.80
2018-09-10T06:57:05.951Z,17.90
2018-09-10T06:59:35.157Z,17.80
2018-09-10T07:02:04.246Z,17.80
2018-09-10T07:04:33.438Z,18.00
2018-09-10T07:07:02.675Z,18.10
2018-09-10T07:09:31.861Z,18.20
2018-09-10T07:12:01.046Z,18.20
2018-09-10T07:14:30.259Z,18.10
2018-09-10T07:16:59.566Z,18.40
2018-09-10T07:19:28.726Z,18.70
2018-09-10T07:21:57.870Z,18.60
2018-09-10T07:24:27.393Z,18.90
2018-09-10T07:26:56.595Z,18.90
2018-09-10T07:29:25.746Z,18.80
2018-09-10T07:31:54.924Z,18.70
2018-09-10T07:34:24.160Z,18.90
2018-09-10T07:36:53.235Z,18.90
2018-09-10T07:39:22.438Z,18.80
2018-09-10T07:41:51.505Z,18.70
2018-09-10T07:44:20.786Z,18.90
2018-09-10T07:46:49.833Z,18.90
2018-09-10T07:49:19.679Z,19.00
2018-09-10T07:51:48.872Z,19.00
2018-09-10T07:54:18.063Z,19.00
2018-09-10T07:56:47.182Z,19.30
2018-09-10T07:59:16.294Z,19.50
2018-09-10T08:01:45.463Z,19.60
2018-09-10T08:04:14.578Z,19.70
2018-09-10T08:06:43.709Z,19.70
2018-09-10T08:09:12.924Z,19.90
2018-09-10T08:11:42.958Z,19.80
2018-09-10T08:14:13.026Z,19.90
2018-09-10T08:16:43.287Z,20.10
2018-09-10T08:19:13.076Z,20.10
2018-09-10T08:21:43.113Z,20.20
2018-09-10T08:24:13.049Z,20.30
2018-09-10T08:26:43.025Z,20.40
2018-09-10T08:29:13.143Z,20.50
2018-09-10T08:31:43.071Z,20.50
2018-09-10T08:34:13.111Z,20.60
2018-09-10T08:36:43.166Z,20.50
2018-09-10T08:39:13.227Z,20.60
2018-09-10T08:41:43.246Z,20.70
2018-09-10T08:44:13.198Z,20.60
2018-09-10T08:46:43.198Z,20.80
2018-09-10T08:49:13.335Z,21.00
2018-09-10T08:51:43.261Z,20.90
2018-09-10T08:54:13.335Z,21.10
2018-09-10T08:56:43.348Z,21.00
2018-09-10T08:59:13.364Z,21.30
2018-09-10T09:01:43.373Z,21.40
2018-09-10T09:04:13.434Z,21.40
2018-09-10T09:06:43.350Z,21.50
2018-09-10T09:09:13.470Z,21.70
2018-09-10T09:11:43.458Z,21.60
2018-09-10T09:14:13.463Z,21.80
2018-09-10T09:16:43.486Z,21.90
2018-09-10T09:19:20.188Z,22.10
2018-09-10T09:21:49.330Z,22.20
2018-09-10T09:24:18.587Z,22.00
2018-09-10T09:26:47.838Z,22.10
2018-09-10T09:29:16.944Z,22.20
2018-09-10T09:31:46.150Z,22.10
2018-09-10T09:34:15.395Z,22.30
2018-09-10T09:36:50.070Z,22.30
2018-09-10T09:40:22.430Z,22.30
2018-09-10T09:42:56.901Z,22.30
2018-09-10T09:45:32.596Z,22.50
2018-09-10T09:48:01.753Z,22.50
2018-09-10T09:50:30.863Z,22.60
2018-09-10T09:53:00.073Z,22.80
2018-09-10T09:55:29.302Z,23.00
2018-09-10T09:57:58.483Z,22.90
2018-09-10T10:00:32.830Z,23.00
2018-09-10T10:03:07.219Z,22.90
2018-09-10T10:05:36.393Z,23.00
2018-09-10T10:08:05.750Z,23.10
2018-09-10T10:10:34.878Z,23.30
2018-09-10T10:13:04.023Z,23.50
2018-09-10T10:15:33.206Z,23.50
2018-09-10T10:18:02.571Z,23.40
2018-09-10T10:20:31.721Z,23.40
2018-09-10T10:23:00.968Z,23.40
2018-09-10T10:25:30.282Z,23.60
2018-09-10T10:27:59.530Z,23.80
2018-09-10T10:30:28.678Z,23.90
2018-09-10T10:32:58.072Z,24.10
2018-09-10T10:35:27.555Z,24.20
2018-09-10T10:37:56.731Z,24.30
2018-09-10T10:40:25.902Z,24.20
2018-09-10T10:42:55.074Z,24.20
2018-09-10T10:45:24.213Z,24.30
2018-09-10T10:47:53.358Z,24.30
2018-09-10T10:50:22.568Z,24.40
2018-09-10T10:52:51.775Z,24.40
2018-09-10T10:55:20.902Z,24.70
2018-09-10T10:57:50.059Z,24.70
2018-09-10T11:00:19.499Z,25.10
2018-09-10T11:02:48.749Z,25.50
2018-09-10T11:05:17.843Z,26.30
2018-09-10T11:07:47.005Z,26.50
2018-09-10T11:10:16.195Z,27.00
2018-09-10T11:12:45.471Z,27.30
2018-09-10T11:15:15.199Z,27.10
2018-09-10T11:17:45.150Z,27.80
2018-09-10T11:20:15.210Z,27.80
2018-09-10T11:22:45.274Z,27.50
2018-09-10T11:25:15.282Z,28.00
2018-09-10T11:27:45.470Z,27.70
2018-09-10T11:30:15.215Z,27.60
2018-09-10T11:32:45.398Z,27.40
2018-09-10T11:35:15.347Z,27.90
2018-09-10T11:37:45.301Z,28.40
2018-09-10T11:40:15.438Z,28.40
2018-09-10T11:42:45.341Z,28.40
2018-09-10T11:45:15.390Z,28.10
2018-09-10T11:47:45.471Z,27.90
2018-09-10T11:50:15.520Z,27.20
2018-09-10T11:52:45.515Z,26.80
2018-09-10T11:55:15.566Z,26.70
2018-09-10T11:57:45.406Z,27.30
2018-09-10T12:00:15.499Z,27.20
2018-09-10T12:02:45.718Z,27.00
2018-09-10T12:05:15.531Z,26.70
2018-09-10T12:07:45.635Z,26.60
2018-09-10T12:10:15.498Z,26.60
2018-09-10T12:12:45.489Z,26.20
2018-09-10T12:15:15.647Z,25.90
2018-09-10T12:17:45.717Z,26.20
2018-09-10T12:20:15.746Z,27.00
2018-09-10T12:22:45.705Z,26.80
2018-09-10T12:25:22.378Z,26.40
2018-09-10T12:27:51.490Z,26.50
2018-09-10T12:30:20.642Z,26.00
2018-09-10T12:32:49.839Z,25.90
2018-09-10T12:35:19.143Z,25.60
2018-09-10T12:37:54.775Z,25.70
2018-09-10T12:40:23.920Z,26.20
2018-09-10T12:42:53.163Z,26.80
2018-09-10T12:45:22.437Z,27.10
2018-09-10T12:47:51.590Z,26.90
2018-09-10T12:50:20.766Z,26.40
2018-09-10T12:52:49.904Z,26.20
2018-09-10T12:55:19.070Z,26.30
2018-09-10T12:57:48.342Z,26.00
2018-09-10T13:00:17.497Z,26.00
2018-09-10T13:02:46.561Z,25.90
2018-09-10T13:05:15.950Z,25.90
2018-09-10T13:07:46.019Z,25.80
2018-09-10T13:10:15.938Z,26.00
2018-09-10T13:12:46.092Z,26.70
2018-09-10T13:15:16.131Z,26.80
2018-09-10T13:17:46.025Z,26.60
2018-09-10T13:20:16.015Z,26.60
2018-09-10T13:22:46.078Z,26.60
2018-09-10T13:25:16.320Z,26.50
2018-09-10T13:27:46.170Z,26.40
2018-09-10T13:30:16.200Z,25.90
2018-09-10T13:32:46.367Z,25.50
2018-09-10T13:35:16.313Z,25.30
2018-09-10T13:37:46.379Z,25.30
2018-09-10T13:40:16.618Z,25.50
2018-09-10T13:42:46.398Z,26.10
2018-09-10T13:45:16.475Z,25.90
2018-09-10T13:47:46.405Z,25.50
2018-09-10T13:50:16.418Z,25.30
2018-09-10T13:52:46.446Z,25.40
2018-09-10T13:55:16.501Z,25.30
2018-09-10T13:57:46.536Z,25.30
2018-09-10T14:00:16.635Z,25.10
2018-09-10T14:02:46.545Z,25.00
2018-09-10T14:05:16.576Z,24.80
2018-09-10T14:07:46.658Z,24.80
2018-09-10T14:10:16.600Z,24.80
2018-09-10T14:12:46.822Z,24.70
2018-09-10T14:15:16.639Z,24.60
2018-09-10T14:17:46.685Z,24.70
2018-09-10T14:20:16.724Z,24.80
2018-09-10T14:22:47.011Z,24.90
2018-09-10T14:25:16.819Z,25.00
2018-09-10T14:27:46.914Z,25.20
2018-09-10T14:30:16.886Z,25.10
2018-09-10T14:32:46.761Z,25.10
2018-09-10T14:35:16.749Z,25.10
2018-09-10T14:37:46.845Z,25.20
2018-09-10T14:40:16.852Z,25.00
2018-09-10T14:42:46.991Z,25.10
2018-09-10T14:45:16.996Z,25.10
2018-09-10T14:47:46.936Z,24.90
2018-09-10T14:50:17.079Z,24.90
2018-09-10T14:52:46.965Z,25.00
2018-09-10T14:55:16.983Z,25.20
2018-09-10T14:57:46.941Z,25.30
2018-09-10T15:00:22.436Z,25.20
2018-09-10T15:02:51.622Z,25.10
2018-09-10T15:05:21.178Z,25.20
2018-09-10T15:07:50.754Z,25.50
2018-09-10T15:10:19.881Z,25.50
2018-09-10T15:12:49.050Z,25.30
2018-09-10T15:15:18.278Z,25.00
2018-09-10T15:17:47.787Z,24.70
2018-09-10T15:20:17.239Z,24.60
2018-09-10T15:22:46.414Z,24.60
2018-09-10T15:25:15.579Z,24.40
2018-09-10T15:27:44.839Z,24.50
2018-09-10T15:30:14.115Z,24.60
2018-09-10T15:32:43.169Z,24.60
2018-09-10T15:35:12.331Z,24.50
2018-09-10T15:37:41.530Z,24.30
2018-09-10T15:40:10.829Z,24.30
2018-09-10T15:42:40.285Z,24.10
2018-09-10T15:45:09.557Z,24.30
2018-09-10T15:47:38.632Z,24.30
2018-09-10T15:50:07.851Z,24.20
2018-09-10T15:52:37.067Z,24.20
2018-09-10T15:55:06.210Z,23.90
2018-09-10T15:57:35.333Z,23.90
2018-09-10T16:00:04.475Z,23.90
2018-09-10T16:02:33.650Z,24.00
2018-09-10T16:05:02.813Z,24.20
2018-09-10T16:07:32.051Z,24.40
2018-09-10T16:10:01.166Z,24.10
2018-09-10T16:12:30.354Z,24.10
2018-09-10T16:14:59.564Z,24.10
2018-09-10T16:17:28.734Z,24.00
2018-09-10T16:19:58.084Z,23.90
2018-09-10T16:22:27.487Z,23.80
2018-09-10T16:24:56.671Z,23.90
2018-09-10T16:27:25.929Z,24.10
2018-09-10T16:29:55.150Z,23.90
2018-09-10T16:32:24.438Z,23.60
2018-09-10T16:34:53.533Z,23.50
2018-09-10T16:37:22.671Z,23.40
2018-09-10T16:39:52.010Z,23.30
2018-09-10T16:42:21.234Z,23.60
2018-09-10T16:44:50.406Z,23.20
2018-09-10T16:47:19.478Z,22.90
2018-09-10T16:49:48.678Z,22.80
2018-09-10T16:52:18.206Z,22.80
2018-09-10T16:54:48.347Z,22.80
2018-09-10T16:57:18.320Z,22.70
2018-09-10T16:59:48.451Z,22.50
2018-09-10T17:02:18.362Z,22.60
2018-09-10T17:04:48.386Z,22.60
2018-09-10T17:07:18.225Z,22.60
2018-09-10T17:09:48.450Z,22.50
2018-09-10T17:12:18.418Z,22.50
2018-09-10T17:14:48.490Z,22.40
2018-09-10T17:17:18.467Z,22.40
2018-09-10T17:19:48.622Z,22.30
2018-09-10T17:22:18.515Z,22.20
2018-09-10T17:24:48.442Z,22.20
2018-09-10T17:27:18.598Z,22.10
2018-09-10T17:29:48.490Z,22.00
2018-09-10T17:32:18.673Z,21.90
2018-09-10T17:34:48.598Z,21.90
2018-09-10T17:37:18.779Z,21.80
2018-09-10T17:39:48.683Z,21.80
2018-09-10T17:42:18.852Z,21.80
2018-09-10T17:44:48.786Z,21.70
2018-09-10T17:47:18.920Z,21.70
2018-09-10T17:49:48.847Z,21.60
2018-09-10T17:52:18.842Z,21.60
2018-09-10T17:54:48.924Z,21.70
2018-09-10T17:57:19.709Z,21.70
2018-09-10T17:59:48.994Z,21.70
2018-09-10T18:02:18.879Z,21.80
2018-09-10T18:04:49.086Z,21.80
2018-09-10T18:07:19.001Z,21.60
2018-09-10T18:09:49.171Z,21.50
2018-09-10T18:12:19.162Z,21.50
2018-09-10T18:14:49.410Z,21.50
2018-09-10T18:17:19.403Z,21.50
2018-09-10T18:19:49.265Z,21.60
2018-09-10T18:22:19.281Z,21.50
2018-09-10T18:24:49.305Z,21.60
2018-09-10T18:27:19.454Z,21.50
2018-09-10T18:29:49.669Z,21.50
2018-09-10T18:32:19.418Z,21.40
2018-09-10T18:34:49.395Z,21.40
2018-09-10T18:37:19.249Z,21.30
2018-09-10T18:39:49.398Z,21.30
2018-09-10T18:42:19.575Z,21.30
2018-09-10T18:44:49.502Z,21.20
2018-09-10T18:47:19.466Z,21.20
2018-09-10T18:49:49.545Z,21.30
2018-09-10T18:52:19.623Z,21.70
2018-09-10T18:54:49.662Z,22.00
2018-09-10T18:57:19.598Z,22.10
2018-09-10T18:59:49.556Z,22.10
2018-09-10T19:02:19.881Z,22.00
2018-09-10T19:04:49.758Z,22.10
2018-09-10T19:07:19.656Z,21.80
2018-09-10T19:09:49.809Z,21.40
2018-09-10T19:12:19.850Z,21.30
2018-09-10T19:14:49.939Z,21.20
2018-09-10T19:17:20.034Z,21.20
2018-09-10T19:19:49.935Z,21.50
2018-09-10T19:22:20.678Z,21.50
2018-09-10T19:24:49.994Z,21.20
2018-09-10T19:27:19.854Z,20.80
2018-09-10T19:29:49.988Z,20.80
2018-09-10T19:32:20.100Z,20.70
2018-09-10T19:34:50.000Z,20.60
2018-09-10T19:37:20.025Z,20.50
2018-09-10T19:39:50.099Z,20.40
2018-09-10T19:42:20.226Z,20.40
2018-09-10T19:44:50.241Z,20.40
2018-09-10T19:47:20.255Z,20.60
2018-09-10T19:49:50.251Z,20.40
2018-09-10T19:52:20.316Z,20.30
2018-09-10T19:54:50.367Z,20.20
2018-09-10T19:57:20.255Z,20.20
2018-09-10T19:59:50.394Z,20.40
2018-09-10T20:02:20.390Z,20.30
2018-09-10T20:04:50.363Z,20.30
2018-09-10T20:07:20.464Z,20.20
2018-09-10T20:09:50.481Z,20.50
2018-09-10T20:12:20.438Z,20.70
2018-09-10T20:14:50.494Z,20.70
2018-09-10T20:17:20.646Z,20.50
2018-09-10T20:19:50.650Z,20.40
2018-09-10T20:22:20.649Z,20.30
2018-09-10T20:24:50.632Z,20.30
2018-09-10T20:27:20.769Z,20.20
2018-09-10T20:29:50.730Z,20.10
2018-09-10T20:32:20.799Z,20.00
2018-09-10T20:34:50.678Z,20.00
2018-09-10T20:37:20.792Z,20.10
2018-09-10T20:39:50.893Z,20.10
2018-09-10T20:42:20.834Z,20.10
2018-09-10T20:44:50.845Z,20.00
2018-09-10T20:47:21.004Z,20.00
2018-09-10T20:49:50.962Z,19.70
2018-09-10T20:52:20.977Z,19.50
2018-09-10T20:54:52.130Z,19.40
2018-09-10T20:57:21.379Z,19.50
2018-09-10T20:59:51.210Z,19.40
2018-09-10T21:02:21.392Z,19.40
2018-09-10T21:04:51.371Z,19.30
2018-09-10T21:07:21.517Z,19.40
2018-09-10T21:09:51.309Z,19.50
2018-09-10T21:12:21.535Z,19.50
2018-09-10T21:14:51.494Z,19.30
2018-09-10T21:17:21.543Z,19.30
2018-09-10T21:19:51.482Z,19.30
2018-09-10T21:22:21.558Z,19.20
2018-09-10T21:24:51.582Z,19.30
2018-09-10T21:27:21.449Z,19.20
2018-09-10T21:29:51.614Z,19.10
2018-09-10T21:32:21.566Z,19.10
2018-09-10T21:34:51.658Z,19.00
2018-09-10T21:37:21.723Z,19.10
2018-09-10T21:39:51.648Z,19.00
2018-09-10T21:42:21.686Z,18.90
2018-09-10T21:44:51.692Z,19.00
2018-09-10T21:47:21.765Z,18.90
2018-09-10T21:49:51.776Z,18.90
2018-09-10T21:52:21.900Z,18.90
2018-09-10T21:54:51.815Z,18.90
2018-09-10T21:57:21.895Z,18.90
2018-09-10T21:59:51.817Z,18.80
2018-09-10T22:02:21.873Z,18.80
2018-09-10T22:04:51.938Z,18.90
2018-09-10T22:07:21.942Z,18.80
2018-09-10T22:09:51.926Z,18.80
2018-09-10T22:12:21.898Z,18.80
2018-09-10T22:14:51.886Z,18.60
2018-09-10T22:17:21.902Z,18.70
2018-09-10T22:19:51.982Z,18.70
2018-09-10T22:22:22.058Z,18.50
2018-09-10T22:24:52.047Z,18.50
2018-09-10T22:27:22.014Z,18.50
2018-09-10T22:29:52.074Z,18.40
2018-09-10T22:32:22.186Z,18.30
2018-09-10T22:34:52.046Z,18.40
2018-09-10T22:37:22.222Z,18.50
2018-09-10T22:39:52.150Z,18.50
2018-09-10T22:42:22.526Z,18.50
2018-09-10T22:44:52.126Z,18.50
2018-09-10T22:47:22.286Z,18.50
2018-09-10T22:49:52.390Z,18.40
2018-09-10T22:52:22.422Z,18.40
2018-09-10T22:54:52.355Z,18.50
2018-09-10T22:57:22.420Z,18.50
2018-09-10T22:59:52.485Z,18.50
2018-09-10T23:02:22.454Z,18.40
2018-09-10T23:04:52.514Z,18.30
2018-09-10T23:07:22.475Z,18.30
2018-09-10T23:09:52.853Z,18.30
2018-09-10T23:12:22.665Z,18.30
2018-09-10T23:14:52.759Z,18.20
2018-09-10T23:17:22.659Z,18.30
2018-09-10T23:19:52.590Z,18.30
2018-09-10T23:22:22.729Z,18.30
2018-09-10T23:24:52.753Z,18.20
2018-09-10T23:27:22.795Z,18.20
2018-09-10T23:29:52.845Z,18.20
2018-09-10T23:32:22.679Z,18.10
2018-09-10T23:34:53.043Z,18.20
2018-09-10T23:37:22.851Z,18.20
2018-09-10T23:39:52.838Z,18.20
2018-09-10T23:42:22.943Z,18.10
2018-09-10T23:44:52.771Z,18.20
2018-09-10T23:47:23.001Z,18.10
2018-09-10T23:49:52.942Z,18.10
2018-09-10T23:52:22.980Z,17.90
2018-09-10T23:54:53.099Z,17.80
2018-09-10T23:57:22.973Z,18.00
2018-09-10T23:59:52.994Z,18.00
